JBU1752 TJSJ-KTPA
Flight info
| Callsign | JBU1752 |
|---|---|
| Flight time | N/A |
| Altitude | 36000 |
| Route | ACONY3 SAPPO Y280 OCTAL BLFRG3 |
| Aircraft | A320/M-SDE3FGHIRWY/LB1 |
Departure
| Time | 2026-05-06 15:32 |
|---|---|
| Airport | Luis Munoz Marin International Airport (TJSJ) |
Arrival
| Time | N/A |
|---|---|
| Airport | Tampa International Airport (KTPA) |
| Time | Latitude | Longitude | Altitude | Speed | Heading |
|---|---|---|---|---|---|
| 2026-05-06 15:21 | 18.43547 | -66.00591 | 17 ft | 0 kts | 0° |
| 2026-05-06 15:23 | 18.43531 | -66.00591 | 18 ft | 4 kts | 358° |
| 2026-05-06 15:23 | 18.43504 | -66.00589 | 19 ft | 4 kts | 350° |
| 2026-05-06 15:24 | 18.43479 | -66.00582 | 19 ft | 4 kts | 328° |
| 2026-05-06 15:24 | 18.43465 | -66.00566 | 19 ft | 2 kts | 270° |
| 2026-05-06 15:24 | 18.43465 | -66.00565 | 20 ft | 0 kts | 270° |
| 2026-05-06 15:26 | 18.43465 | -66.00567 | 17 ft | 1 kts | 270° |
| 2026-05-06 15:26 | 18.43465 | -66.00588 | 17 ft | 5 kts | 270° |
| 2026-05-06 15:26 | 18.43466 | -66.00638 | 17 ft | 8 kts | 270° |
| 2026-05-06 15:27 | 18.43466 | -66.00696 | 17 ft | 8 kts | 270° |
| 2026-05-06 15:27 | 18.43466 | -66.00761 | 17 ft | 9 kts | 270° |
| 2026-05-06 15:27 | 18.43466 | -66.00832 | 17 ft | 10 kts | 270° |
| 2026-05-06 15:27 | 18.43466 | -66.00914 | 17 ft | 12 kts | 270° |
| 2026-05-06 15:28 | 18.43466 | -66.01010 | 17 ft | 14 kts | 269° |
| 2026-05-06 15:28 | 18.43467 | -66.01118 | 17 ft | 16 kts | 270° |
| 2026-05-06 15:28 | 18.43467 | -66.01242 | 17 ft | 16 kts | 270° |
| 2026-05-06 15:28 | 18.43467 | -66.01328 | 17 ft | 7 kts | 267° |
| 2026-05-06 15:29 | 18.43451 | -66.01355 | 18 ft | 0 kts | 219° |
| 2026-05-06 15:30 | 18.43448 | -66.01357 | 17 ft | 2 kts | 211° |
| 2026-05-06 15:30 | 18.43419 | -66.01361 | 17 ft | 7 kts | 181° |
| 2026-05-06 15:30 | 18.43366 | -66.01347 | 17 ft | 9 kts | 134° |
| 2026-05-06 15:30 | 18.43356 | -66.01307 | 17 ft | 0 kts | 92° |
| 2026-05-06 15:31 | 18.43356 | -66.01134 | 17 ft | 58 kts | 90° |
| 2026-05-06 15:31 | 18.43355 | -66.00486 | 17 ft | 116 kts | 90° |
| 2026-05-06 15:32 | 18.43384 | -65.98447 | 741 ft | 143 kts | 78° |
| 2026-05-06 15:32 | 18.43945 | -65.97585 | 1142 ft | 153 kts | 21° |
| 2026-05-06 15:32 | 18.44993 | -65.97669 | 1343 ft | 177 kts | 340° |
| 2026-05-06 15:32 | 18.46050 | -65.98519 | 1349 ft | 212 kts | 304° |
| 2026-05-06 15:33 | 18.46623 | -66.00027 | 1585 ft | 234 kts | 287° |
| 2026-05-06 15:33 | 18.47472 | -66.01563 | 1850 ft | 257 kts | 320° |
| 2026-05-06 15:33 | 18.49073 | -66.02512 | 2499 ft | 270 kts | 340° |
| 2026-05-06 15:33 | 18.50874 | -66.03137 | 3338 ft | 275 kts | 346° |
| 2026-05-06 15:34 | 18.52722 | -66.03716 | 4254 ft | 279 kts | 340° |
| 2026-05-06 15:34 | 18.54408 | -66.04749 | 5050 ft | 284 kts | 317° |
| 2026-05-06 15:34 | 18.55807 | -66.06251 | 5814 ft | 288 kts | 314° |
| 2026-05-06 15:34 | 18.57175 | -66.07778 | 6588 ft | 293 kts | 314° |
| 2026-05-06 15:35 | 18.58566 | -66.09347 | 7335 ft | 294 kts | 314° |
| 2026-05-06 15:35 | 18.59961 | -66.10925 | 8099 ft | 294 kts | 313° |
| 2026-05-06 15:35 | 18.61358 | -66.12500 | 8888 ft | 294 kts | 313° |
| 2026-05-06 15:35 | 18.62761 | -66.14078 | 9655 ft | 295 kts | 313° |
| 2026-05-06 15:36 | 18.64173 | -66.15664 | 10308 ft | 301 kts | 313° |
| 2026-05-06 15:36 | 18.65662 | -66.17332 | 10457 ft | 323 kts | 312° |
| 2026-05-06 15:36 | 18.67253 | -66.19113 | 10571 ft | 344 kts | 312° |
| 2026-05-06 15:36 | 18.68899 | -66.20954 | 10944 ft | 353 kts | 312° |
| 2026-05-06 15:37 | 18.70591 | -66.22853 | 11498 ft | 357 kts | 312° |
| 2026-05-06 15:37 | 18.72300 | -66.24771 | 12060 ft | 360 kts | 313° |
| 2026-05-06 15:37 | 18.74025 | -66.26705 | 12622 ft | 363 kts | 313° |
| 2026-05-06 15:37 | 18.75764 | -66.28656 | 13195 ft | 367 kts | 313° |
| 2026-05-06 15:38 | 18.77519 | -66.30625 | 13758 ft | 370 kts | 312° |
| 2026-05-06 15:38 | 18.79284 | -66.32608 | 14302 ft | 372 kts | 313° |
| 2026-05-06 15:38 | 18.81058 | -66.34603 | 14823 ft | 374 kts | 312° |
| 2026-05-06 15:38 | 18.82838 | -66.36604 | 15411 ft | 374 kts | 312° |
| 2026-05-06 15:39 | 18.84598 | -66.38580 | 15938 ft | 376 kts | 313° |
| 2026-05-06 15:39 | 18.86397 | -66.40601 | 16469 ft | 378 kts | 312° |
| 2026-05-06 15:39 | 18.88203 | -66.42635 | 16996 ft | 381 kts | 312° |
| 2026-05-06 15:39 | 18.90021 | -66.44682 | 17570 ft | 383 kts | 312° |
| 2026-05-06 15:40 | 18.91850 | -66.46742 | 18152 ft | 385 kts | 312° |
| 2026-05-06 15:40 | 18.93703 | -66.48796 | 18666 ft | 388 kts | 313° |
| 2026-05-06 15:40 | 18.95623 | -66.50808 | 19162 ft | 390 kts | 315° |
| 2026-05-06 15:40 | 18.97592 | -66.52795 | 19658 ft | 393 kts | 316° |
| 2026-05-06 15:41 | 18.99567 | -66.54752 | 20131 ft | 396 kts | 316° |
| 2026-05-06 15:41 | 19.01591 | -66.56750 | 20586 ft | 400 kts | 316° |
| 2026-05-06 15:41 | 19.03620 | -66.58767 | 21065 ft | 402 kts | 316° |
| 2026-05-06 15:41 | 19.05652 | -66.60810 | 21516 ft | 405 kts | 316° |
| 2026-05-06 15:42 | 19.07675 | -66.62888 | 21972 ft | 407 kts | 313° |
| 2026-05-06 15:42 | 19.09510 | -66.65178 | 22369 ft | 410 kts | 309° |
| 2026-05-06 15:42 | 19.11322 | -66.67521 | 22761 ft | 413 kts | 309° |
| 2026-05-06 15:42 | 19.12939 | -66.69611 | 23170 ft | 415 kts | 310° |
| 2026-05-06 15:43 | 19.14780 | -66.71982 | 23534 ft | 419 kts | 310° |
| 2026-05-06 15:43 | 19.16611 | -66.74336 | 23854 ft | 422 kts | 310° |
| 2026-05-06 15:43 | 19.18476 | -66.76732 | 24203 ft | 423 kts | 310° |
| 2026-05-06 15:43 | 19.20346 | -66.79141 | 24528 ft | 424 kts | 309° |
| 2026-05-06 15:44 | 19.22224 | -66.81558 | 24860 ft | 426 kts | 309° |
| 2026-05-06 15:44 | 19.24109 | -66.83981 | 25189 ft | 427 kts | 309° |
| 2026-05-06 15:44 | 19.26000 | -66.86412 | 25502 ft | 429 kts | 309° |
| 2026-05-06 15:44 | 19.27896 | -66.88852 | 25846 ft | 430 kts | 309° |
| 2026-05-06 15:45 | 19.29798 | -66.91298 | 26197 ft | 430 kts | 309° |
| 2026-05-06 15:45 | 19.31675 | -66.93713 | 26536 ft | 431 kts | 309° |
| 2026-05-06 15:45 | 19.33582 | -66.96168 | 26863 ft | 432 kts | 309° |
| 2026-05-06 15:45 | 19.35493 | -66.98630 | 27187 ft | 434 kts | 309° |
| 2026-05-06 15:46 | 19.37407 | -67.01103 | 27507 ft | 435 kts | 309° |
| 2026-05-06 15:46 | 19.39327 | -67.03587 | 27825 ft | 436 kts | 309° |
| 2026-05-06 15:46 | 19.41252 | -67.06079 | 28141 ft | 438 kts | 309° |
| 2026-05-06 15:46 | 19.43184 | -67.08580 | 28451 ft | 439 kts | 309° |
| 2026-05-06 15:47 | 19.45120 | -67.11083 | 28810 ft | 439 kts | 308° |
| 2026-05-06 15:47 | 19.47053 | -67.13583 | 29276 ft | 437 kts | 308° |
| 2026-05-06 15:47 | 19.48948 | -67.16034 | 29738 ft | 435 kts | 308° |
| 2026-05-06 15:47 | 19.50863 | -67.18510 | 30208 ft | 433 kts | 308° |
| 2026-05-06 15:48 | 19.52771 | -67.20977 | 30609 ft | 432 kts | 308° |
| 2026-05-06 15:48 | 19.54668 | -67.23436 | 31004 ft | 430 kts | 308° |
| 2026-05-06 15:48 | 19.56557 | -67.25888 | 31407 ft | 429 kts | 308° |
| 2026-05-06 15:48 | 19.58441 | -67.28331 | 31787 ft | 428 kts | 308° |
| 2026-05-06 15:49 | 19.60323 | -67.30769 | 32160 ft | 427 kts | 308° |
| 2026-05-06 15:49 | 19.62200 | -67.33203 | 32534 ft | 426 kts | 308° |
| 2026-05-06 15:49 | 19.64047 | -67.35600 | 32920 ft | 425 kts | 308° |
| 2026-05-06 15:49 | 19.65918 | -67.38027 | 33327 ft | 424 kts | 308° |
| 2026-05-06 15:50 | 19.67781 | -67.40441 | 33716 ft | 423 kts | 307° |
| 2026-05-06 15:50 | 19.69639 | -67.42854 | 34100 ft | 422 kts | 307° |
| 2026-05-06 15:50 | 19.71495 | -67.45267 | 34419 ft | 421 kts | 307° |
| 2026-05-06 15:50 | 19.73347 | -67.47676 | 34704 ft | 421 kts | 307° |
| 2026-05-06 15:51 | 19.75199 | -67.50086 | 34985 ft | 421 kts | 307° |
| 2026-05-06 15:51 | 19.77049 | -67.52496 | 35256 ft | 421 kts | 307° |
| 2026-05-06 15:51 | 19.78897 | -67.54903 | 35524 ft | 421 kts | 307° |
| 2026-05-06 15:51 | 19.80717 | -67.57279 | 35800 ft | 420 kts | 308° |
| 2026-05-06 15:52 | 19.82563 | -67.59682 | 36039 ft | 420 kts | 308° |
| 2026-05-06 15:52 | 19.84414 | -67.62089 | 36118 ft | 423 kts | 308° |
| 2026-05-06 15:52 | 19.88168 | -67.66974 | 36128 ft | 429 kts | 308° |
| 2026-05-06 15:53 | 19.91940 | -67.71904 | 36125 ft | 430 kts | 308° |
| 2026-05-06 15:53 | 19.95713 | -67.76845 | 36125 ft | 430 kts | 308° |
| 2026-05-06 15:54 | 19.99466 | -67.81750 | 36128 ft | 430 kts | 308° |
| 2026-05-06 15:54 | 20.03246 | -67.86687 | 36129 ft | 431 kts | 308° |
| 2026-05-06 15:55 | 20.07022 | -67.91629 | 36129 ft | 431 kts | 308° |
| 2026-05-06 15:55 | 20.10793 | -67.96580 | 36131 ft | 431 kts | 308° |
| 2026-05-06 15:56 | 20.14537 | -68.01500 | 36131 ft | 431 kts | 308° |
| 2026-05-06 15:56 | 20.18307 | -68.06459 | 36131 ft | 431 kts | 308° |
| 2026-05-06 15:57 | 20.22076 | -68.11416 | 36135 ft | 431 kts | 308° |
| 2026-05-06 15:57 | 20.25848 | -68.16375 | 36134 ft | 431 kts | 308° |
| 2026-05-06 15:58 | 20.29596 | -68.21300 | 36135 ft | 431 kts | 308° |
| 2026-05-06 15:58 | 20.33359 | -68.26255 | 36138 ft | 430 kts | 308° |
| 2026-05-06 15:59 | 20.37116 | -68.31210 | 36138 ft | 430 kts | 308° |
| 2026-05-06 15:59 | 20.40868 | -68.36166 | 36146 ft | 429 kts | 308° |
| 2026-05-06 16:00 | 20.44488 | -68.41214 | 36144 ft | 428 kts | 301° |
| 2026-05-06 16:00 | 20.47624 | -68.46558 | 36139 ft | 428 kts | 301° |
| 2026-05-06 16:01 | 20.50793 | -68.51929 | 36136 ft | 428 kts | 301° |
| 2026-05-06 16:01 | 20.53958 | -68.57297 | 36137 ft | 427 kts | 302° |
| 2026-05-06 16:02 | 20.57113 | -68.62665 | 36137 ft | 427 kts | 302° |
| 2026-05-06 16:02 | 20.60260 | -68.68030 | 36136 ft | 426 kts | 302° |
| 2026-05-06 16:03 | 20.63379 | -68.73359 | 36132 ft | 426 kts | 302° |
| 2026-05-06 16:03 | 20.66523 | -68.78724 | 36130 ft | 426 kts | 302° |
| 2026-05-06 16:04 | 20.69664 | -68.84082 | 36128 ft | 426 kts | 302° |
| 2026-05-06 16:04 | 20.72802 | -68.89446 | 36127 ft | 425 kts | 302° |
| 2026-05-06 16:05 | 20.75909 | -68.94771 | 36130 ft | 425 kts | 302° |
| 2026-05-06 16:05 | 20.79031 | -69.00129 | 36143 ft | 425 kts | 302° |
| 2026-05-06 16:06 | 20.82156 | -69.05482 | 36132 ft | 425 kts | 302° |
| 2026-05-06 16:06 | 20.85277 | -69.10842 | 36128 ft | 425 kts | 302° |
| 2026-05-06 16:07 | 20.88377 | -69.16167 | 36128 ft | 425 kts | 302° |
| 2026-05-06 16:07 | 20.91497 | -69.21531 | 36121 ft | 424 kts | 303° |
| 2026-05-06 16:08 | 20.94612 | -69.26891 | 36124 ft | 424 kts | 303° |
| 2026-05-06 16:08 | 20.97723 | -69.32249 | 36125 ft | 424 kts | 303° |
| 2026-05-06 16:09 | 21.00834 | -69.37611 | 36121 ft | 424 kts | 303° |
| 2026-05-06 16:09 | 21.03913 | -69.42939 | 36121 ft | 424 kts | 303° |
| 2026-05-06 16:10 | 21.07016 | -69.48300 | 36125 ft | 424 kts | 303° |
| 2026-05-06 16:10 | 21.10120 | -69.53664 | 36116 ft | 423 kts | 303° |
| 2026-05-06 16:11 | 21.13222 | -69.59023 | 36123 ft | 423 kts | 303° |
| 2026-05-06 16:11 | 21.16312 | -69.64380 | 36124 ft | 423 kts | 303° |
| 2026-05-06 16:12 | 21.19377 | -69.69704 | 36139 ft | 422 kts | 303° |
| 2026-05-06 16:12 | 21.22464 | -69.75065 | 36133 ft | 423 kts | 303° |
| 2026-05-06 16:13 | 21.25546 | -69.80425 | 36124 ft | 423 kts | 303° |
| 2026-05-06 16:13 | 21.28629 | -69.85785 | 36121 ft | 423 kts | 303° |
| 2026-05-06 16:14 | 21.31690 | -69.91116 | 36116 ft | 422 kts | 304° |
| 2026-05-06 16:14 | 21.34763 | -69.96480 | 36124 ft | 422 kts | 304° |
| 2026-05-06 16:15 | 21.37838 | -70.01840 | 36122 ft | 422 kts | 304° |
| 2026-05-06 16:15 | 21.40905 | -70.07206 | 36122 ft | 422 kts | 304° |
| 2026-05-06 16:16 | 21.43972 | -70.12572 | 36122 ft | 422 kts | 304° |
| 2026-05-06 16:16 | 21.47022 | -70.17900 | 36122 ft | 422 kts | 304° |
| 2026-05-06 16:17 | 21.50084 | -70.23268 | 36112 ft | 421 kts | 305° |
| 2026-05-06 16:17 | 21.53138 | -70.28632 | 36121 ft | 421 kts | 305° |
| 2026-05-06 16:18 | 21.56194 | -70.33994 | 36123 ft | 421 kts | 305° |
| 2026-05-06 16:18 | 21.59227 | -70.39318 | 36136 ft | 420 kts | 305° |
| 2026-05-06 16:19 | 21.62280 | -70.44678 | 36132 ft | 420 kts | 305° |
| 2026-05-06 16:19 | 21.65324 | -70.50043 | 36127 ft | 420 kts | 305° |
| 2026-05-06 16:20 | 21.68366 | -70.55401 | 36117 ft | 420 kts | 306° |
| 2026-05-06 16:20 | 21.71384 | -70.60725 | 36126 ft | 419 kts | 306° |
| 2026-05-06 16:21 | 21.74413 | -70.66075 | 36126 ft | 419 kts | 306° |
| 2026-05-06 16:21 | 21.77440 | -70.71427 | 36126 ft | 418 kts | 306° |
| 2026-05-06 16:22 | 21.80460 | -70.76772 | 36122 ft | 418 kts | 306° |
| 2026-05-06 16:22 | 21.83460 | -70.82086 | 36124 ft | 418 kts | 306° |
| 2026-05-06 16:23 | 21.86483 | -70.87435 | 36123 ft | 418 kts | 306° |
| 2026-05-06 16:23 | 21.89491 | -70.92783 | 36120 ft | 417 kts | 306° |
| 2026-05-06 16:24 | 21.92496 | -70.98128 | 36122 ft | 417 kts | 306° |
| 2026-05-06 16:24 | 21.95501 | -71.03467 | 36122 ft | 417 kts | 306° |
| 2026-05-06 16:25 | 21.98477 | -71.08771 | 36136 ft | 416 kts | 306° |
| 2026-05-06 16:25 | 22.01475 | -71.14106 | 36132 ft | 416 kts | 306° |
| 2026-05-06 16:26 | 22.04466 | -71.19446 | 36127 ft | 416 kts | 306° |
| 2026-05-06 16:26 | 22.07455 | -71.24782 | 36125 ft | 416 kts | 306° |
| 2026-05-06 16:27 | 22.10427 | -71.30081 | 36120 ft | 416 kts | 306° |
| 2026-05-06 16:27 | 22.13414 | -71.35418 | 36119 ft | 416 kts | 306° |
| 2026-05-06 16:28 | 22.16395 | -71.40761 | 36121 ft | 416 kts | 306° |
| 2026-05-06 16:28 | 22.19376 | -71.46109 | 36120 ft | 416 kts | 306° |
| 2026-05-06 16:29 | 22.22340 | -71.51416 | 36120 ft | 416 kts | 306° |
| 2026-05-06 16:29 | 22.25321 | -71.56761 | 36098 ft | 416 kts | 307° |
| 2026-05-06 16:30 | 22.27310 | -71.60340 | 36105 ft | 415 kts | 307° |
| 2026-05-06 16:30 | 22.31262 | -71.67459 | 36116 ft | 415 kts | 306° |
| 2026-05-06 16:31 | 22.34231 | -71.72809 | 36115 ft | 415 kts | 307° |
| 2026-05-06 16:31 | 22.37183 | -71.78117 | 36115 ft | 415 kts | 307° |
| 2026-05-06 16:32 | 22.40149 | -71.83460 | 36128 ft | 414 kts | 306° |
| 2026-05-06 16:32 | 22.43103 | -71.88807 | 36123 ft | 414 kts | 306° |
| 2026-05-06 16:33 | 22.46054 | -71.94150 | 36126 ft | 414 kts | 307° |
| 2026-05-06 16:34 | 22.50448 | -72.02118 | 36127 ft | 413 kts | 307° |
| 2026-05-06 16:34 | 22.53386 | -72.07451 | 36128 ft | 412 kts | 307° |
| 2026-05-06 16:35 | 22.56330 | -72.12778 | 36119 ft | 412 kts | 307° |
| 2026-05-06 16:35 | 22.59266 | -72.18107 | 36120 ft | 412 kts | 307° |
| 2026-05-06 16:36 | 22.62172 | -72.23411 | 36128 ft | 412 kts | 307° |
| 2026-05-06 16:36 | 22.65101 | -72.28744 | 36116 ft | 412 kts | 307° |
| 2026-05-06 16:37 | 22.67533 | -72.33176 | 36110 ft | 412 kts | 307° |
| 2026-05-06 16:37 | 22.70459 | -72.38509 | 36120 ft | 412 kts | 307° |
| 2026-05-06 16:38 | 22.73850 | -72.44708 | 36113 ft | 412 kts | 307° |
| 2026-05-06 16:38 | 22.76273 | -72.49145 | 36112 ft | 412 kts | 307° |
| 2026-05-06 16:39 | 22.79188 | -72.54481 | 36120 ft | 411 kts | 307° |
| 2026-05-06 16:39 | 22.82102 | -72.59810 | 36119 ft | 411 kts | 307° |
| 2026-05-06 16:40 | 22.85010 | -72.65137 | 36112 ft | 410 kts | 307° |
| 2026-05-06 16:40 | 22.87912 | -72.70468 | 36122 ft | 410 kts | 306° |
| 2026-05-06 16:41 | 22.90794 | -72.75762 | 36115 ft | 410 kts | 306° |
| 2026-05-06 16:41 | 22.93692 | -72.81095 | 36120 ft | 410 kts | 306° |
| 2026-05-06 16:42 | 22.96585 | -72.86428 | 36124 ft | 410 kts | 306° |
| 2026-05-06 16:42 | 22.99482 | -72.91765 | 36119 ft | 410 kts | 306° |
| 2026-05-06 16:43 | 23.02355 | -72.97064 | 36101 ft | 410 kts | 306° |
| 2026-05-06 16:43 | 23.05247 | -73.02406 | 36106 ft | 410 kts | 306° |
| 2026-05-06 16:44 | 23.08140 | -73.07747 | 36121 ft | 410 kts | 306° |
| 2026-05-06 16:44 | 23.11029 | -73.13091 | 36126 ft | 410 kts | 306° |
| 2026-05-06 16:45 | 23.14379 | -73.19315 | 36118 ft | 410 kts | 306° |
| 2026-05-06 16:45 | 23.16768 | -73.23765 | 36131 ft | 410 kts | 306° |
| 2026-05-06 16:46 | 23.19654 | -73.29113 | 36132 ft | 410 kts | 306° |
| 2026-05-06 16:46 | 23.22535 | -73.34457 | 36122 ft | 410 kts | 306° |
| 2026-05-06 16:47 | 23.25389 | -73.39772 | 36122 ft | 410 kts | 306° |
| 2026-05-06 16:47 | 23.28261 | -73.45128 | 36119 ft | 410 kts | 306° |
| 2026-05-06 16:48 | 23.31136 | -73.50478 | 36123 ft | 410 kts | 306° |
| 2026-05-06 16:48 | 23.34008 | -73.55836 | 36132 ft | 410 kts | 306° |
| 2026-05-06 16:49 | 23.36853 | -73.61161 | 36121 ft | 410 kts | 306° |
| 2026-05-06 16:49 | 23.39722 | -73.66525 | 36111 ft | 410 kts | 305° |
| 2026-05-06 16:50 | 23.42592 | -73.71891 | 36115 ft | 410 kts | 305° |
| 2026-05-06 16:50 | 23.45456 | -73.77268 | 36118 ft | 410 kts | 305° |
| 2026-05-06 16:51 | 23.48301 | -73.82610 | 36118 ft | 411 kts | 305° |
| 2026-05-06 16:51 | 23.51162 | -73.87997 | 36119 ft | 411 kts | 305° |
| 2026-05-06 16:52 | 23.54021 | -73.93386 | 36132 ft | 411 kts | 305° |
| 2026-05-06 16:52 | 23.56883 | -73.98774 | 36128 ft | 411 kts | 305° |
| 2026-05-06 16:53 | 23.59724 | -74.04123 | 36114 ft | 411 kts | 305° |
| 2026-05-06 16:53 | 23.62581 | -74.09520 | 36116 ft | 411 kts | 305° |
| 2026-05-06 16:54 | 23.65439 | -74.14916 | 36119 ft | 411 kts | 305° |
| 2026-05-06 16:54 | 23.68300 | -74.20322 | 36122 ft | 411 kts | 305° |
| 2026-05-06 16:55 | 23.71137 | -74.25692 | 36123 ft | 411 kts | 304° |
| 2026-05-06 16:55 | 23.73989 | -74.31109 | 36125 ft | 412 kts | 304° |
| 2026-05-06 16:56 | 23.76841 | -74.36524 | 36117 ft | 412 kts | 304° |
| 2026-05-06 16:56 | 23.79690 | -74.41948 | 36119 ft | 411 kts | 304° |
| 2026-05-06 16:57 | 23.82519 | -74.47329 | 36122 ft | 412 kts | 304° |
| 2026-05-06 16:57 | 23.85374 | -74.52753 | 36124 ft | 412 kts | 304° |
| 2026-05-06 16:58 | 23.88226 | -74.58180 | 36126 ft | 412 kts | 304° |
| 2026-05-06 16:58 | 23.91075 | -74.63615 | 36145 ft | 412 kts | 304° |
| 2026-05-06 16:59 | 23.93731 | -74.68692 | 36144 ft | 412 kts | 304° |
| 2026-05-06 16:59 | 23.96577 | -74.74135 | 36142 ft | 412 kts | 304° |
| 2026-05-06 17:00 | 23.99419 | -74.79580 | 36136 ft | 412 kts | 304° |
| 2026-05-06 17:00 | 24.02259 | -74.85028 | 36135 ft | 412 kts | 304° |
| 2026-05-06 17:01 | 24.05078 | -74.90446 | 36134 ft | 412 kts | 304° |
| 2026-05-06 17:01 | 24.07915 | -74.95896 | 36131 ft | 412 kts | 304° |
| 2026-05-06 17:02 | 24.10755 | -75.01348 | 36129 ft | 412 kts | 304° |
| 2026-05-06 17:02 | 24.13585 | -75.06800 | 36121 ft | 412 kts | 304° |
| 2026-05-06 17:03 | 24.16415 | -75.12254 | 36115 ft | 412 kts | 304° |
| 2026-05-06 17:03 | 24.19222 | -75.17675 | 36114 ft | 412 kts | 304° |
| 2026-05-06 17:04 | 24.22049 | -75.23139 | 36115 ft | 412 kts | 304° |
| 2026-05-06 17:04 | 24.24876 | -75.28607 | 36117 ft | 412 kts | 304° |
| 2026-05-06 17:05 | 24.27706 | -75.34076 | 36118 ft | 413 kts | 304° |
| 2026-05-06 17:05 | 24.30512 | -75.39515 | 36129 ft | 413 kts | 303° |
| 2026-05-06 17:06 | 24.33332 | -75.44993 | 36118 ft | 412 kts | 303° |
| 2026-05-06 17:06 | 24.36154 | -75.50467 | 36119 ft | 412 kts | 303° |
| 2026-05-06 17:07 | 24.38976 | -75.55948 | 36121 ft | 413 kts | 303° |
| 2026-05-06 17:07 | 24.41777 | -75.61401 | 36124 ft | 413 kts | 303° |
| 2026-05-06 17:08 | 24.44589 | -75.66901 | 36124 ft | 413 kts | 303° |
| 2026-05-06 17:08 | 24.47407 | -75.72399 | 36126 ft | 414 kts | 303° |
| 2026-05-06 17:09 | 24.50221 | -75.77908 | 36129 ft | 414 kts | 303° |
| 2026-05-06 17:09 | 24.53016 | -75.83384 | 36124 ft | 414 kts | 303° |
| 2026-05-06 17:10 | 24.55834 | -75.88894 | 36131 ft | 414 kts | 303° |
| 2026-05-06 17:10 | 24.58648 | -75.94408 | 36142 ft | 414 kts | 303° |
| 2026-05-06 17:11 | 24.61458 | -75.99924 | 36130 ft | 413 kts | 303° |
| 2026-05-06 17:11 | 24.64243 | -76.05405 | 36128 ft | 413 kts | 303° |
| 2026-05-06 17:12 | 24.67069 | -76.10980 | 36144 ft | 423 kts | 302° |
| 2026-05-06 17:12 | 24.69972 | -76.16709 | 36111 ft | 433 kts | 302° |
| 2026-05-06 17:13 | 24.72930 | -76.22533 | 36109 ft | 440 kts | 302° |
| 2026-05-06 17:13 | 24.75909 | -76.28406 | 36178 ft | 444 kts | 302° |
| 2026-05-06 17:13 | 24.77396 | -76.31347 | 36622 ft | 436 kts | 302° |
| 2026-05-06 17:14 | 24.78853 | -76.34235 | 37098 ft | 428 kts | 302° |
| 2026-05-06 17:14 | 24.80280 | -76.37071 | 37555 ft | 420 kts | 302° |
| 2026-05-06 17:14 | 24.81679 | -76.39861 | 38028 ft | 412 kts | 302° |
| 2026-05-06 17:14 | 24.83050 | -76.42603 | 38511 ft | 405 kts | 302° |
| 2026-05-06 17:15 | 24.84394 | -76.45298 | 38963 ft | 398 kts | 302° |
| 2026-05-06 17:15 | 24.85696 | -76.47916 | 39379 ft | 392 kts | 302° |
| 2026-05-06 17:15 | 24.86988 | -76.50523 | 39804 ft | 384 kts | 302° |
| 2026-05-06 17:15 | 24.88253 | -76.53082 | 40268 ft | 377 kts | 302° |
| 2026-05-06 17:16 | 24.89489 | -76.55590 | 40724 ft | 368 kts | 302° |
| 2026-05-06 17:16 | 24.90691 | -76.58040 | 41191 ft | 359 kts | 302° |
| 2026-05-06 17:16 | 24.91859 | -76.60431 | 41670 ft | 349 kts | 302° |
| 2026-05-06 17:16 | 24.92988 | -76.62753 | 42142 ft | 338 kts | 302° |
| 2026-05-06 17:17 | 24.94075 | -76.65002 | 42605 ft | 326 kts | 302° |
| 2026-05-06 17:17 | 24.95117 | -76.67171 | 43042 ft | 314 kts | 302° |
| 2026-05-06 17:17 | 24.96110 | -76.69251 | 43183 ft | 310 kts | 302° |
| 2026-05-06 17:17 | 24.97125 | -76.71374 | 42851 ft | 318 kts | 302° |
| 2026-05-06 17:18 | 24.98180 | -76.73568 | 42412 ft | 329 kts | 302° |
| 2026-05-06 17:18 | 24.99256 | -76.75801 | 42307 ft | 329 kts | 302° |
| 2026-05-06 17:18 | 25.00314 | -76.78000 | 42614 ft | 319 kts | 302° |
| 2026-05-06 17:18 | 25.01331 | -76.80129 | 42902 ft | 311 kts | 302° |
| 2026-05-06 17:19 | 25.02338 | -76.82240 | 42810 ft | 313 kts | 302° |
| 2026-05-06 17:19 | 25.03368 | -76.84392 | 42415 ft | 323 kts | 302° |
| 2026-05-06 17:19 | 25.04415 | -76.86572 | 42157 ft | 328 kts | 302° |
| 2026-05-06 17:20 | 25.06515 | -76.90951 | 42531 ft | 315 kts | 301° |
| 2026-05-06 17:20 | 25.07528 | -76.93073 | 42638 ft | 312 kts | 301° |
| 2026-05-06 17:20 | 25.08544 | -76.95204 | 42428 ft | 317 kts | 301° |
| 2026-05-06 17:20 | 25.09585 | -76.97379 | 42129 ft | 324 kts | 301° |
| 2026-05-06 17:21 | 25.10643 | -76.99586 | 42059 ft | 325 kts | 301° |
| 2026-05-06 17:21 | 25.11686 | -77.01769 | 42252 ft | 318 kts | 301° |
| 2026-05-06 17:21 | 25.12704 | -77.03906 | 42443 ft | 312 kts | 301° |
| 2026-05-06 17:22 | 25.14727 | -77.08153 | 42131 ft | 320 kts | 301° |
| 2026-05-06 17:22 | 25.15773 | -77.10344 | 41961 ft | 324 kts | 301° |
| 2026-05-06 17:22 | 25.16819 | -77.12533 | 42044 ft | 320 kts | 301° |
| 2026-05-06 17:22 | 25.17845 | -77.14689 | 42246 ft | 314 kts | 301° |
| 2026-05-06 17:23 | 25.18854 | -77.16814 | 42301 ft | 312 kts | 301° |
| 2026-05-06 17:23 | 25.19868 | -77.18948 | 42131 ft | 317 kts | 301° |
| 2026-05-06 17:23 | 25.20901 | -77.21119 | 41917 ft | 322 kts | 301° |
| 2026-05-06 17:24 | 25.22962 | -77.25448 | 42027 ft | 317 kts | 301° |
| 2026-05-06 17:24 | 25.23978 | -77.27590 | 42132 ft | 314 kts | 301° |
| 2026-05-06 17:24 | 25.24992 | -77.29726 | 42062 ft | 315 kts | 301° |
| 2026-05-06 17:24 | 25.26017 | -77.31885 | 41890 ft | 320 kts | 301° |
| 2026-05-06 17:25 | 25.27054 | -77.34068 | 41807 ft | 321 kts | 301° |
| 2026-05-06 17:25 | 25.29106 | -77.38393 | 42017 ft | 314 kts | 301° |
| 2026-05-06 17:26 | 25.31120 | -77.42648 | 41892 ft | 317 kts | 301° |
| 2026-05-06 17:26 | 25.32149 | -77.44818 | 41763 ft | 320 kts | 301° |
| 2026-05-06 17:26 | 25.33182 | -77.46997 | 41773 ft | 319 kts | 301° |
| 2026-05-06 17:26 | 25.34205 | -77.49158 | 41887 ft | 315 kts | 301° |
| 2026-05-06 17:27 | 25.35217 | -77.51299 | 41949 ft | 313 kts | 301° |
| 2026-05-06 17:27 | 25.37250 | -77.55601 | 41748 ft | 319 kts | 301° |
| 2026-05-06 17:28 | 25.39304 | -77.59945 | 41770 ft | 317 kts | 300° |
| 2026-05-06 17:28 | 25.41324 | -77.64222 | 41765 ft | 317 kts | 300° |
| 2026-05-06 17:29 | 25.43378 | -77.68570 | 41663 ft | 319 kts | 300° |
| 2026-05-06 17:29 | 25.45414 | -77.72887 | 41847 ft | 314 kts | 300° |
| 2026-05-06 17:30 | 25.47436 | -77.77180 | 41702 ft | 317 kts | 300° |
| 2026-05-06 17:30 | 25.49470 | -77.81496 | 41683 ft | 317 kts | 300° |
| 2026-05-06 17:31 | 25.51490 | -77.85791 | 41804 ft | 314 kts | 300° |
| 2026-05-06 17:31 | 25.53520 | -77.90107 | 41624 ft | 318 kts | 300° |
| 2026-05-06 17:32 | 25.55557 | -77.94442 | 41716 ft | 315 kts | 300° |
| 2026-05-06 17:32 | 25.57561 | -77.98712 | 41645 ft | 317 kts | 300° |
| 2026-05-06 17:32 | 25.58584 | -78.00891 | 41503 ft | 321 kts | 300° |
| 2026-05-06 17:33 | 25.59613 | -78.03082 | 41501 ft | 320 kts | 300° |
| 2026-05-06 17:33 | 25.60635 | -78.05259 | 41625 ft | 316 kts | 300° |
| 2026-05-06 17:33 | 25.61643 | -78.07412 | 41720 ft | 314 kts | 300° |
| 2026-05-06 17:34 | 25.63667 | -78.11733 | 41551 ft | 319 kts | 300° |
| 2026-05-06 17:34 | 25.65716 | -78.16106 | 41569 ft | 318 kts | 300° |
| 2026-05-06 17:34 | 25.66714 | -78.18240 | 41679 ft | 315 kts | 300° |
| 2026-05-06 17:35 | 25.67720 | -78.20393 | 41689 ft | 315 kts | 300° |
| 2026-05-06 17:35 | 25.69751 | -78.24738 | 41504 ft | 320 kts | 300° |
| 2026-05-06 17:36 | 25.71787 | -78.29095 | 41641 ft | 316 kts | 300° |
| 2026-05-06 17:36 | 25.72793 | -78.31252 | 41687 ft | 315 kts | 300° |
| 2026-05-06 17:36 | 25.74816 | -78.35589 | 41536 ft | 319 kts | 300° |
| 2026-05-06 17:37 | 25.76837 | -78.39923 | 41598 ft | 317 kts | 300° |
| 2026-05-06 17:37 | 25.78850 | -78.44248 | 41648 ft | 316 kts | 300° |
| 2026-05-06 17:38 | 25.80875 | -78.48599 | 41580 ft | 318 kts | 299° |
| 2026-05-06 17:38 | 25.82882 | -78.52916 | 41751 ft | 313 kts | 299° |
| 2026-05-06 17:39 | 25.84869 | -78.57196 | 41609 ft | 317 kts | 299° |
| 2026-05-06 17:39 | 25.86889 | -78.61547 | 41631 ft | 315 kts | 299° |
| 2026-05-06 17:40 | 25.88883 | -78.65852 | 41721 ft | 313 kts | 299° |
| 2026-05-06 17:40 | 25.90892 | -78.70188 | 41535 ft | 318 kts | 299° |
| 2026-05-06 17:41 | 25.92902 | -78.74528 | 41573 ft | 317 kts | 299° |
| 2026-05-06 17:41 | 25.94904 | -78.78858 | 41647 ft | 315 kts | 299° |
| 2026-05-06 17:42 | 25.96917 | -78.83214 | 41518 ft | 318 kts | 299° |
| 2026-05-06 17:42 | 25.98930 | -78.87575 | 41636 ft | 315 kts | 299° |
| 2026-05-06 17:43 | 26.00914 | -78.91879 | 41605 ft | 316 kts | 299° |
| 2026-05-06 17:43 | 26.02928 | -78.96250 | 41552 ft | 318 kts | 299° |
| 2026-05-06 17:44 | 26.04929 | -79.00597 | 41671 ft | 315 kts | 299° |
| 2026-05-06 17:44 | 26.06928 | -79.04947 | 41573 ft | 317 kts | 299° |
| 2026-05-06 17:45 | 26.08927 | -79.09298 | 41558 ft | 318 kts | 298° |
| 2026-05-06 17:45 | 26.10933 | -79.13667 | 41609 ft | 317 kts | 298° |
| 2026-05-06 17:46 | 26.12938 | -79.18040 | 41572 ft | 318 kts | 298° |
| 2026-05-06 17:46 | 26.14948 | -79.22426 | 41599 ft | 317 kts | 298° |
| 2026-05-06 17:47 | 26.16934 | -79.26766 | 41678 ft | 316 kts | 298° |
| 2026-05-06 17:47 | 26.18919 | -79.31107 | 41738 ft | 314 kts | 298° |
| 2026-05-06 17:48 | 26.20908 | -79.35461 | 41668 ft | 316 kts | 298° |
| 2026-05-06 17:48 | 26.22899 | -79.39824 | 41714 ft | 315 kts | 298° |
| 2026-05-06 17:49 | 26.24879 | -79.44167 | 41705 ft | 315 kts | 298° |
| 2026-05-06 17:49 | 26.26860 | -79.48516 | 41621 ft | 318 kts | 298° |
| 2026-05-06 17:50 | 26.28847 | -79.52883 | 41735 ft | 314 kts | 298° |
| 2026-05-06 17:50 | 26.30828 | -79.57241 | 41670 ft | 317 kts | 298° |
| 2026-05-06 17:51 | 26.32821 | -79.61629 | 41673 ft | 316 kts | 298° |
| 2026-05-06 17:51 | 26.34797 | -79.65988 | 41733 ft | 315 kts | 298° |
| 2026-05-06 17:52 | 26.36767 | -79.70336 | 41662 ft | 317 kts | 298° |
| 2026-05-06 17:52 | 26.38751 | -79.74719 | 41735 ft | 315 kts | 297° |
| 2026-05-06 17:53 | 26.40722 | -79.79081 | 41726 ft | 316 kts | 297° |
| 2026-05-06 17:53 | 26.42709 | -79.83480 | 41613 ft | 319 kts | 297° |
| 2026-05-06 17:54 | 26.44684 | -79.87858 | 41702 ft | 316 kts | 297° |
| 2026-05-06 17:54 | 26.46661 | -79.92245 | 41693 ft | 318 kts | 297° |
| 2026-05-06 17:55 | 26.48652 | -79.96668 | 41687 ft | 318 kts | 297° |
| 2026-05-06 17:55 | 26.50626 | -80.01059 | 41773 ft | 316 kts | 297° |
| 2026-05-06 17:56 | 26.52486 | -80.05205 | 41703 ft | 319 kts | 297° |
| 2026-05-06 17:56 | 26.53837 | -80.09847 | 41771 ft | 320 kts | 280° |
| 2026-05-06 17:57 | 26.54449 | -80.14770 | 41778 ft | 319 kts | 284° |
| 2026-05-06 17:57 | 26.55449 | -80.19546 | 41734 ft | 312 kts | 288° |
| 2026-05-06 17:58 | 26.56091 | -80.21882 | 41466 ft | 319 kts | 290° |
| 2026-05-06 17:58 | 26.56852 | -80.24229 | 41309 ft | 323 kts | 292° |
| 2026-05-06 17:58 | 26.57703 | -80.26498 | 41459 ft | 318 kts | 295° |
| 2026-05-06 17:58 | 26.58642 | -80.28698 | 41723 ft | 310 kts | 297° |
| 2026-05-06 17:59 | 26.60727 | -80.32871 | 41327 ft | 310 kts | 301° |
| 2026-05-06 17:59 | 26.61922 | -80.34939 | 40822 ft | 324 kts | 303° |
| 2026-05-06 17:59 | 26.63245 | -80.36998 | 40799 ft | 325 kts | 306° |
| 2026-05-06 18:00 | 26.64623 | -80.38932 | 41235 ft | 312 kts | 308° |
| 2026-05-06 18:00 | 26.66044 | -80.40766 | 40911 ft | 324 kts | 310° |
| 2026-05-06 18:00 | 26.67687 | -80.42747 | 39470 ft | 371 kts | 312° |
| 2026-05-06 18:00 | 26.69491 | -80.44942 | 38477 ft | 397 kts | 299° |
| 2026-05-06 18:01 | 26.70701 | -80.47776 | 37826 ft | 414 kts | 289° |
| 2026-05-06 18:01 | 26.71564 | -80.50878 | 37653 ft | 421 kts | 289° |
| 2026-05-06 18:01 | 26.73238 | -80.57179 | 37657 ft | 423 kts | 287° |
| 2026-05-06 18:02 | 26.74643 | -80.63587 | 37880 ft | 425 kts | 284° |
| 2026-05-06 18:02 | 26.75239 | -80.66820 | 38015 ft | 424 kts | 282° |
| 2026-05-06 18:02 | 26.75722 | -80.70066 | 38184 ft | 423 kts | 279° |
| 2026-05-06 18:03 | 26.76054 | -80.73286 | 38364 ft | 421 kts | 280° |
| 2026-05-06 18:03 | 26.76519 | -80.76509 | 38589 ft | 418 kts | 283° |
| 2026-05-06 18:03 | 26.77134 | -80.79676 | 38821 ft | 415 kts | 284° |
| 2026-05-06 18:03 | 26.77785 | -80.82810 | 39038 ft | 412 kts | 285° |
| 2026-05-06 18:04 | 26.78520 | -80.85894 | 39243 ft | 408 kts | 290° |
| 2026-05-06 18:04 | 26.79378 | -80.88909 | 39509 ft | 404 kts | 289° |
| 2026-05-06 18:04 | 26.80318 | -80.91853 | 39822 ft | 400 kts | 291° |
| 2026-05-06 18:04 | 26.81224 | -80.94779 | 39965 ft | 398 kts | 286° |
| 2026-05-06 18:05 | 26.82056 | -80.97715 | 39787 ft | 404 kts | 288° |
| 2026-05-06 18:05 | 26.82897 | -81.00727 | 39792 ft | 407 kts | 288° |
| 2026-05-06 18:05 | 26.83709 | -81.03769 | 39896 ft | 408 kts | 287° |
| 2026-05-06 18:05 | 26.84530 | -81.06807 | 40031 ft | 407 kts | 289° |
| 2026-05-06 18:06 | 26.85497 | -81.09770 | 40175 ft | 403 kts | 292° |